Ana Sayfa
METAR-TAF:

METAR-TAF

Havaalanları :

Bluefield, Batı Virginia, Amerika Birleşik Devletleri

Enlem: 37-17-45N, Boylam: 081-12-28W, yükseklik: 871 m

Güncel hava durumu gözlemi

Rapor saat 18:52 UTC de 26 dakika önce yapıldı.
Rüzgar kuzeybatıdan 6 kt
Sıcaklık 5°C
Nem 65%
Basınç 1026 hPa
Görüş mesafesi: 16.1 km
2400 ft yükseklikte az bulutlu

METAR: KBLF 071852Z AUTO 31006KT 10SM FEW024 05/M01 A3029 RMK AO2 SLP265 T00501011

Saat: 14:18 (19:18 UTC)

Tahmin

Rapor saat 18:27 UTC de 51 dakika önce yapıldı.
Ayın 07'si saat 18 UTC'den ayın 08'si saat 18 UTC'ye kadar geçerli Tahmin
Rüzgar değişken yönden 6 kt
Görüş mesafesi: 10 km
2500 ft yükseklikte parçalı bulutlu
Ayın 07'si saat 2300 UTC'den
Rüzgar değişken yönden 3 kt
Görüş mesafesi: 10 km
Açık gökyüzü
Ayın 08'si saat 1700 UTC'den
Rüzgar güneydoğudan 8 kt
Görüş mesafesi: 10 km
18000 ft yükseklikte parçalı bulutlu

TAF: KBLF 071827Z 0718/0818 VRB06KT P6SM SCT025 FM072300 VRB03KT P6SM SKC FM081700 14008KT P6SM SCT180

4.000'den fazla havaalanı için hava durumu gözlemleri ve tahminleri (METAR ve TAF raporları).

Kullanılabilir istasyonlar harita üzerinde sarı ve kırmızı noktalarla gösterilir.

İstasyonun adını görmek için fareyi noktanın üzerinde gezdirin.

Sonrasında hava gözlem ve tahminlerini görmek için tıklayın.

Haritayı değiştirmek için: yaklaştırmak için siyah artı işaretli yeşil düğmeye ve uzaklaştırmak için de eksi işaretli düğmeye hızla tıklayın; bitişik haritalar için yeşil okları kullanın.


METAR-TAF: